Time;durP1;ratioP1;P1;durP2;ratioP2;P2;SDS_P1;SDS_P2;PMS_P1;PMS_P2;Temp;Humidity;BMP_temperature;BMP_pressure;BME280_temperature;BME280_humidity;BME280_pressure;Samples;Min_cycle;Max_cycle;Signal;HPM_P1;HPM_P2
2022/06/19 00:00:45;;;;;;;7.43;1.38;;;;;;;;;;5071226;28;20051;-75
2022/06/19 00:03:14;;;;;;;8.82;1.27;;;;;;;;;;5071526;28;20040;-74
2022/06/19 00:05:41;;;;;;;9.55;1.52;;;;;;;;;;5071092;28;20404;-74
2022/06/19 00:08:07;;;;;;;10.77;1.33;;;;;;;;;;5070752;28;20944;-74
2022/06/19 00:10:33;;;;;;;6.13;1.20;;;;;;;;;;5053985;28;20055;-74
2022/06/19 00:12:59;;;;;;;8.90;1.13;;;;;;;;;;5070487;28;20059;-74
2022/06/19 00:15:25;;;;;;;6.10;1.35;;;;;;;;;;5072369;28;20508;-74
2022/06/19 00:17:51;;;;;;;7.03;0.98;;;;;;;;;;5070294;28;20040;-74
2022/06/19 00:20:17;;;;;;;8.05;1.10;;;;;;;;;;5070662;28;20118;-75
2022/06/19 00:22:43;;;;;;;5.57;1.00;;;;;;;;;;5070549;28;20075;-75
2022/06/19 00:25:10;;;;;;;6.53;1.17;;;;;;;;;;5070479;28;20044;-75
2022/06/19 00:27:37;;;;;;;9.35;1.35;;;;;;;;;;5070652;28;20041;-74
2022/06/19 00:30:04;;;;;;;8.93;1.63;;;;;;;;;;5066928;28;20051;-74
2022/06/19 00:32:31;;;;;;;6.68;1.30;;;;;;;;;;5071016;28;20495;-74
2022/06/19 00:34:57;;;;;;;9.75;1.70;;;;;;;;;;5070464;28;20072;-74
2022/06/19 00:37:23;;;;;;;5.82;1.15;;;;;;;;;;5070863;28;20119;-75
2022/06/19 00:39:49;;;;;;;7.93;1.30;;;;;;;;;;5070746;28;20037;-74
2022/06/19 00:42:15;;;;;;;9.18;1.50;;;;;;;;;;5073533;28;20063;-75
2022/06/19 00:44:42;;;;;;;7.55;1.10;;;;;;;;;;5074639;28;20469;-74
2022/06/19 00:47:14;;;;;;;6.93;1.02;;;;;;;;;;5074425;28;20044;-74
2022/06/19 00:49:42;;;;;;;7.90;1.25;;;;;;;;;;5074458;28;20041;-75
2022/06/19 00:52:17;;;;;;;6.55;1.30;;;;;;;;;;5074025;28;20055;-75
2022/06/19 00:54:45;;;;;;;9.45;1.70;;;;;;;;;;5075426;28;20089;-74
2022/06/19 00:57:12;;;;;;;8.25;1.17;;;;;;;;;;5075635;28;20036;-74
2022/06/19 00:59:39;;;;;;;5.60;1.17;;;;;;;;;;5075738;28;20068;-74
2022/06/19 01:02:05;;;;;;;6.93;1.13;;;;;;;;;;5108024;28;20045;-74
2022/06/19 01:04:35;;;;;;;6.25;1.00;;;;;;;;;;5074305;28;20481;-74
2022/06/19 01:07:01;;;;;;;6.95;1.10;;;;;;;;;;5073661;28;20488;-75
2022/06/19 01:09:27;;;;;;;6.18;0.90;;;;;;;;;;5057438;28;20044;-75
2022/06/19 01:11:53;;;;;;;8.75;1.10;;;;;;;;;;5074525;28;20358;-75
2022/06/19 01:14:22;;;;;;;6.78;1.05;;;;;;;;;;5073874;28;20036;-74
2022/06/19 01:16:49;;;;;;;10.00;1.45;;;;;;;;;;5073980;28;20072;-74
2022/06/19 01:19:20;;;;;;;6.78;1.13;;;;;;;;;;5074097;28;20861;-74
2022/06/19 01:21:55;;;;;;;7.90;1.10;;;;;;;;;;5074440;28;20559;-74
2022/06/19 01:24:27;;;;;;;5.67;1.37;;;;;;;;;;5073875;28;20037;-74
2022/06/19 01:26:58;;;;;;;9.52;1.40;;;;;;;;;;5073937;28;20526;-75
2022/06/19 01:29:24;;;;;;;8.80;1.30;;;;;;;;;;5070495;28;20405;-75
2022/06/19 01:31:53;;;;;;;9.85;1.50;;;;;;;;;;5073831;28;20032;-74
2022/06/19 01:34:27;;;;;;;9.68;1.40;;;;;;;;;;5073021;28;20090;-75
2022/06/19 01:36:59;;;;;;;8.27;1.30;;;;;;;;;;5073706;28;20052;-75
2022/06/19 01:39:27;;;;;;;8.48;1.63;;;;;;;;;;5057028;28;20404;-75
2022/06/19 01:41:53;;;;;;;6.45;1.13;;;;;;;;;;5075433;28;20091;-75
2022/06/19 01:44:19;;;;;;;8.13;1.23;;;;;;;;;;5073366;28;20045;-76
2022/06/19 01:46:45;;;;;;;9.65;1.77;;;;;;;;;;5076093;28;20084;-74
2022/06/19 01:49:11;;;;;;;10.60;1.67;;;;;;;;;;5072916;28;20049;-74
2022/06/19 01:51:38;;;;;;;10.00;1.60;;;;;;;;;;5073203;28;20041;-73
2022/06/19 01:54:12;;;;;;;11.73;1.50;;;;;;;;;;5072813;28;20114;-74
2022/06/19 01:56:38;;;;;;;6.30;1.40;;;;;;;;;;5074832;28;20119;-74
2022/06/19 01:59:07;;;;;;;12.63;1.73;;;;;;;;;;5039946;28;20056;-75
2022/06/19 02:01:35;;;;;;;10.70;1.70;;;;;;;;;;5062173;28;20064;-75
2022/06/19 02:04:01;;;;;;;10.10;1.70;;;;;;;;;;5065200;28;20044;-74
2022/06/19 02:06:29;;;;;;;14.88;2.60;;;;;;;;;;5073604;28;20045;-74
2022/06/19 02:08:55;;;;;;;9.25;1.55;;;;;;;;;;5073275;28;20033;-74
2022/06/19 02:11:21;;;;;;;11.65;1.85;;;;;;;;;;5072650;28;20489;-74
2022/06/19 02:13:48;;;;;;;14.38;1.65;;;;;;;;;;5073268;28;20495;-74
2022/06/19 02:16:20;;;;;;;12.65;1.83;;;;;;;;;;5072623;28;20496;-74
2022/06/19 02:18:48;;;;;;;10.73;2.20;;;;;;;;;;5072906;28;20045;-74
2022/06/19 02:21:20;;;;;;;14.05;2.38;;;;;;;;;;5072056;28;20087;-74
2022/06/19 02:23:46;;;;;;;13.88;1.73;;;;;;;;;;5056361;28;20062;-74
2022/06/19 02:26:13;;;;;;;7.93;1.58;;;;;;;;;;5072271;28;20045;-74
2022/06/19 02:28:42;;;;;;;10.95;1.88;;;;;;;;;;5072702;28;20044;-75
2022/06/19 02:31:08;;;;;;;11.38;1.92;;;;;;;;;;5066798;28;20107;-74
2022/06/19 02:33:36;;;;;;;12.95;2.13;;;;;;;;;;5072747;28;20400;-74
2022/06/19 02:36:02;;;;;;;11.75;1.95;;;;;;;;;;5072370;28;20049;-74
2022/06/19 02:38:28;;;;;;;12.68;2.28;;;;;;;;;;5072266;28;20123;-74
2022/06/19 02:41:00;;;;;;;14.35;1.95;;;;;;;;;;5072424;28;20047;-74
2022/06/19 02:43:31;;;;;;;15.70;1.80;;;;;;;;;;5073436;28;20060;-74
2022/06/19 02:45:57;;;;;;;12.63;2.10;;;;;;;;;;5072050;28;20064;-74
2022/06/19 02:48:25;;;;;;;17.00;2.17;;;;;;;;;;5073496;28;20041;-74
2022/06/19 02:50:52;;;;;;;13.75;2.00;;;;;;;;;;5072248;28;20032;-74
2022/06/19 02:53:19;;;;;;;14.05;1.92;;;;;;;;;;5072894;28;20420;-75
2022/06/19 02:55:45;;;;;;;14.88;2.55;;;;;;;;;;5072347;28;20523;-75
2022/06/19 02:58:11;;;;;;;8.45;1.67;;;;;;;;;;5055409;28;20489;-75
2022/06/19 03:00:38;;;;;;;11.60;1.90;;;;;;;;;;5067833;28;20042;-75
2022/06/19 03:03:23;;;;;;;8.90;1.60;;;;;;;;;;5062855;28;20044;-75
2022/06/19 03:05:49;;;;;;;16.65;2.10;;;;;;;;;;5071421;28;20067;-75
2022/06/19 03:08:15;;;;;;;15.00;1.90;;;;;;;;;;5071454;28;20090;-75
2022/06/19 03:10:41;;;;;;;13.30;2.30;;;;;;;;;;5055059;28;20040;-75
2022/06/19 03:13:07;;;;;;;17.60;2.20;;;;;;;;;;5071812;28;20079;-75
2022/06/19 03:15:33;;;;;;;14.10;2.10;;;;;;;;;;5056313;28;20040;-75
2022/06/19 03:17:59;;;;;;;14.63;1.80;;;;;;;;;;5074436;28;20667;-75
2022/06/19 03:20:26;;;;;;;9.95;2.15;;;;;;;;;;5071698;28;20408;-74
2022/06/19 03:22:53;;;;;;;11.45;1.98;;;;;;;;;;5072558;28;20036;-75
2022/06/19 03:25:19;;;;;;;11.88;1.70;;;;;;;;;;5072882;28;20408;-75
2022/06/19 03:27:46;;;;;;;10.40;1.85;;;;;;;;;;5072232;28;20666;-75
2022/06/19 03:30:13;;;;;;;14.70;2.22;;;;;;;;;;5068059;28;20036;-75
2022/06/19 03:32:39;;;;;;;12.77;1.88;;;;;;;;;;5071309;28;20044;-74
2022/06/19 03:35:06;;;;;;;9.50;1.90;;;;;;;;;;5054841;28;20037;-74
2022/06/19 03:37:32;;;;;;;16.40;2.45;;;;;;;;;;5070728;28;20045;-75
2022/06/19 03:39:58;;;;;;;16.15;2.40;;;;;;;;;;5054503;28;20127;-75
2022/06/19 03:42:24;;;;;;;13.80;2.38;;;;;;;;;;5072057;28;20432;-74
2022/06/19 03:44:50;;;;;;;14.70;2.30;;;;;;;;;;5071376;28;20473;-75
2022/06/19 03:47:21;;;;;;;7.88;1.33;;;;;;;;;;5070669;28;20189;-75
2022/06/19 03:49:47;;;;;;;12.15;1.73;;;;;;;;;;5072426;28;20123;-75
2022/06/19 03:52:13;;;;;;;15.00;2.47;;;;;;;;;;5072053;28;20123;-75
2022/06/19 03:54:39;;;;;;;10.13;2.03;;;;;;;;;;5054192;28;20036;-75
2022/06/19 03:57:06;;;;;;;10.15;2.22;;;;;;;;;;5054876;28;20044;-74
2022/06/19 03:59:32;;;;;;;10.70;1.65;;;;;;;;;;5054562;28;20036;-74
2022/06/19 04:01:58;;;;;;;15.35;2.05;;;;;;;;;;5060229;28;20086;-74
2022/06/19 04:04:24;;;;;;;14.52;2.20;;;;;;;;;;5053753;28;20140;-75
2022/06/19 04:06:50;;;;;;;13.65;2.10;;;;;;;;;;5050368;28;20393;-75
2022/06/19 04:09:17;;;;;;;14.50;3.47;;;;;;;;;;5051702;28;20122;-75
2022/06/19 04:11:44;;;;;;;12.23;2.33;;;;;;;;;;5062817;28;20098;-74
2022/06/19 04:14:15;;;;;;;13.45;2.15;;;;;;;;;;5070860;28;20043;-75
2022/06/19 04:16:42;;;;;;;13.98;2.33;;;;;;;;;;5070167;28;20505;-75
2022/06/19 04:19:09;;;;;;;15.55;2.17;;;;;;;;;;5072482;28;20055;-74
2022/06/19 04:21:40;;;;;;;10.52;2.33;;;;;;;;;;5070479;28;20059;-75
2022/06/19 04:24:07;;;;;;;16.90;2.35;;;;;;;;;;5071191;28;20370;-75
2022/06/19 04:26:36;;;;;;;11.05;1.85;;;;;;;;;;5070388;28;20048;-75
2022/06/19 04:29:03;;;;;;;13.43;1.80;;;;;;;;;;5068852;28;20396;-75
2022/06/19 04:31:29;;;;;;;14.32;2.40;;;;;;;;;;5053201;28;20036;-75
2022/06/19 04:33:55;;;;;;;11.38;2.08;;;;;;;;;;5070890;28;20090;-75
2022/06/19 04:36:24;;;;;;;12.35;2.10;;;;;;;;;;5071406;28;20036;-75
2022/06/19 04:38:51;;;;;;;13.90;2.05;;;;;;;;;;5072099;28;20048;-75
2022/06/19 04:41:19;;;;;;;12.38;2.53;;;;;;;;;;5071636;28;20044;-75
2022/06/19 04:43:46;;;;;;;12.75;2.58;;;;;;;;;;5071998;28;20037;-75
2022/06/19 04:46:12;;;;;;;11.95;1.95;;;;;;;;;;5070368;28;20064;-75
2022/06/19 04:48:38;;;;;;;11.10;2.22;;;;;;;;;;5070140;28;20051;-75
2022/06/19 04:51:05;;;;;;;12.10;2.25;;;;;;;;;;5070611;28;20040;-75
2022/06/19 04:53:32;;;;;;;13.65;2.05;;;;;;;;;;5070306;28;20036;-75
2022/06/19 04:55:59;;;;;;;15.07;2.38;;;;;;;;;;5054306;28;20728;-75
2022/06/19 04:58:25;;;;;;;14.18;2.33;;;;;;;;;;5071760;28;20033;-75
2022/06/19 05:00:51;;;;;;;12.95;2.25;;;;;;;;;;5072463;28;20040;-75
2022/06/19 05:03:18;;;;;;;14.15;2.35;;;;;;;;;;5070522;28;20055;-75
2022/06/19 05:05:44;;;;;;;16.08;2.38;;;;;;;;;;5070410;28;20037;-75
2022/06/19 05:08:10;;;;;;;15.27;2.20;;;;;;;;;;5054303;28;20388;-75
2022/06/19 05:10:36;;;;;;;15.57;2.10;;;;;;;;;;5053258;28;20037;-74
2022/06/19 05:13:05;;;;;;;9.68;1.80;;;;;;;;;;5063426;28;20049;-75
2022/06/19 05:15:31;;;;;;;10.65;1.83;;;;;;;;;;5064366;28;20389;-75
2022/06/19 05:17:57;;;;;;;8.27;1.77;;;;;;;;;;5070349;28;20051;-75
2022/06/19 05:20:24;;;;;;;15.38;2.05;;;;;;;;;;5070077;28;20049;-75
2022/06/19 05:22:50;;;;;;;10.20;1.92;;;;;;;;;;5070734;28;20399;-74
2022/06/19 05:25:16;;;;;;;7.65;1.92;;;;;;;;;;5053772;28;20512;-74
2022/06/19 05:27:42;;;;;;;12.38;1.80;;;;;;;;;;5071382;28;20115;-74
2022/06/19 05:30:10;;;;;;;13.38;1.70;;;;;;;;;;5070729;28;20041;-74
2022/06/19 05:32:36;;;;;;;9.82;2.13;;;;;;;;;;5056514;28;20084;-74
2022/06/19 05:35:03;;;;;;;11.23;1.67;;;;;;;;;;5075264;28;20041;-74
2022/06/19 05:37:29;;;;;;;13.55;1.70;;;;;;;;;;5073269;28;20045;-75
2022/06/19 05:39:55;;;;;;;13.70;1.98;;;;;;;;;;5073892;28;20033;-74
2022/06/19 05:42:21;;;;;;;10.70;1.80;;;;;;;;;;5057388;28;20045;-74
2022/06/19 05:44:47;;;;;;;16.48;2.00;;;;;;;;;;5073337;28;20036;-75
2022/06/19 05:47:13;;;;;;;9.68;1.67;;;;;;;;;;5073110;28;20123;-75
2022/06/19 05:49:39;;;;;;;10.75;2.00;;;;;;;;;;5073093;28;20040;-75
2022/06/19 05:52:24;;;;;;;10.38;1.77;;;;;;;;;;5056817;28;20036;-74
2022/06/19 05:54:51;;;;;;;11.93;2.20;;;;;;;;;;5073717;28;20037;-74
2022/06/19 05:57:18;;;;;;;10.35;1.70;;;;;;;;;;5073117;28;20036;-75
2022/06/19 05:59:44;;;;;;;10.38;1.90;;;;;;;;;;5073169;28;20862;-74
2022/06/19 06:02:12;;;;;;;11.68;2.00;;;;;;;;;;5073625;28;20123;-75
2022/06/19 06:04:38;;;;;;;7.72;1.63;;;;;;;;;;5073209;28;20573;-75
2022/06/19 06:07:06;;;;;;;12.10;1.70;;;;;;;;;;5073144;28;20040;-74
2022/06/19 06:09:32;;;;;;;12.07;1.70;;;;;;;;;;5074197;28;20033;-75
2022/06/19 06:11:58;;;;;;;10.85;1.70;;;;;;;;;;5072903;28;20055;-75
2022/06/19 06:14:24;;;;;;;11.90;1.98;;;;;;;;;;5072854;28;20041;-75
2022/06/19 06:16:50;;;;;;;14.90;2.38;;;;;;;;;;5072922;28;20094;-74
2022/06/19 06:19:16;;;;;;;13.45;1.83;;;;;;;;;;5056166;28;20053;-75
2022/06/19 06:21:42;;;;;;;13.07;1.73;;;;;;;;;;5056162;28;20040;-75
2022/06/19 06:24:13;;;;;;;11.40;2.20;;;;;;;;;;5056309;28;20044;-75
2022/06/19 06:26:39;;;;;;;10.05;1.80;;;;;;;;;;5072402;28;20041;-75
2022/06/19 06:29:05;;;;;;;9.98;1.65;;;;;;;;;;5069773;28;20044;-75
2022/06/19 06:31:31;;;;;;;15.45;2.17;;;;;;;;;;5055563;28;20123;-75
2022/06/19 06:33:57;;;;;;;9.48;1.70;;;;;;;;;;5072471;28;20037;-75
2022/06/19 06:36:23;;;;;;;13.93;2.00;;;;;;;;;;5072768;28;20505;-75
2022/06/19 06:38:50;;;;;;;11.02;1.55;;;;;;;;;;5054713;28;20036;-75
2022/06/19 06:41:16;;;;;;;12.32;1.80;;;;;;;;;;5073730;28;20069;-75
2022/06/19 06:43:44;;;;;;;10.50;2.22;;;;;;;;;;5072002;28;20090;-74
2022/06/19 06:46:14;;;;;;;9.48;2.03;;;;;;;;;;5055373;28;20056;-74
2022/06/19 06:48:41;;;;;;;13.75;2.30;;;;;;;;;;5055325;28;20137;-75
2022/06/19 06:51:12;;;;;;;11.13;2.00;;;;;;;;;;5073637;28;20068;-74
2022/06/19 06:53:38;;;;;;;13.18;1.75;;;;;;;;;;5055404;28;20040;-75
2022/06/19 06:56:05;;;;;;;18.25;2.25;;;;;;;;;;5055791;28;20046;-75
2022/06/19 06:58:32;;;;;;;12.63;2.03;;;;;;;;;;5071976;28;20128;-75
2022/06/19 07:00:58;;;;;;;11.25;2.20;;;;;;;;;;5055532;28;20072;-72
2022/06/19 07:03:24;;;;;;;18.40;2.17;;;;;;;;;;5072132;28;20045;-75
2022/06/19 07:05:50;;;;;;;15.98;1.98;;;;;;;;;;5071503;28;20043;-75
2022/06/19 07:08:16;;;;;;;14.55;2.42;;;;;;;;;;5072005;28;20522;-75
2022/06/19 07:10:42;;;;;;;16.63;2.15;;;;;;;;;;5071564;28;20036;-75
2022/06/19 07:13:09;;;;;;;16.08;2.13;;;;;;;;;;5055222;28;20083;-75
2022/06/19 07:15:35;;;;;;;11.98;2.05;;;;;;;;;;5040617;28;20045;-75
2022/06/19 07:18:01;;;;;;;15.95;2.05;;;;;;;;;;5054973;28;20040;-75
2022/06/19 07:20:27;;;;;;;15.98;2.17;;;;;;;;;;5071695;28;20124;-72
2022/06/19 07:22:53;;;;;;;13.13;2.13;;;;;;;;;;5071107;28;20193;-72
2022/06/19 07:25:21;;;;;;;14.45;2.40;;;;;;;;;;5054927;28;20033;-75
2022/06/19 07:27:47;;;;;;;11.68;1.88;;;;;;;;;;5070757;28;20040;-75
2022/06/19 07:30:22;;;;;;;13.07;2.10;;;;;;;;;;5068311;28;20094;-75
2022/06/19 07:32:48;;;;;;;14.15;2.38;;;;;;;;;;5071396;28;20044;-76
2022/06/19 07:35:15;;;;;;;14.70;2.17;;;;;;;;;;5071551;28;20040;-75
2022/06/19 07:37:41;;;;;;;16.35;2.60;;;;;;;;;;5072379;28;20119;-76
2022/06/19 07:40:07;;;;;;;18.67;2.80;;;;;;;;;;5072828;28;20497;-75
2022/06/19 07:42:33;;;;;;;13.23;2.10;;;;;;;;;;5071502;28;20037;-75
2022/06/19 07:45:00;;;;;;;10.43;2.05;;;;;;;;;;5054600;28;20032;-75
2022/06/19 07:50:11;;;;;;;12.60;1.90;;;;;;;;;;5057084;28;20048;-75
2022/06/19 07:52:44;;;;;;;10.45;1.88;;;;;;;;;;5072022;28;20087;-75
2022/06/19 07:55:11;;;;;;;13.10;2.13;;;;;;;;;;5055075;28;20040;-75
2022/06/19 07:57:37;;;;;;;15.15;2.13;;;;;;;;;;5071632;28;20044;-73
2022/06/19 08:00:16;;;;;;;11.70;2.55;;;;;;;;;;5071948;28;20054;-73
2022/06/19 08:02:47;;;;;;;12.20;2.30;;;;;;;;;;5071754;28;20051;-73
2022/06/19 08:05:14;;;;;;;17.05;2.60;;;;;;;;;;5071782;28;20119;-76
2022/06/19 08:07:40;;;;;;;13.02;2.20;;;;;;;;;;5054865;28;20465;-75
2022/06/19 08:10:07;;;;;;;12.45;2.58;;;;;;;;;;5072119;28;20119;-74
2022/06/19 08:12:33;;;;;;;10.00;1.70;;;;;;;;;;5071495;28;20508;-73
2022/06/19 08:14:59;;;;;;;13.43;2.40;;;;;;;;;;5070416;28;20058;-73
2022/06/19 08:17:26;;;;;;;11.73;1.90;;;;;;;;;;5070752;28;20493;-72
2022/06/19 08:19:52;;;;;;;10.93;1.83;;;;;;;;;;5070513;28;20511;-73
2022/06/19 08:22:18;;;;;;;18.05;2.13;;;;;;;;;;5054366;28;20048;-73
2022/06/19 08:24:44;;;;;;;15.10;2.45;;;;;;;;;;5070557;28;20036;-73
2022/06/19 08:27:10;;;;;;;12.15;1.70;;;;;;;;;;5070603;28;20056;-73
2022/06/19 08:29:36;;;;;;;14.02;2.17;;;;;;;;;;5067631;28;20392;-73
2022/06/19 08:32:03;;;;;;;9.73;2.20;;;;;;;;;;5070280;28;20169;-73
2022/06/19 08:34:29;;;;;;;12.82;2.25;;;;;;;;;;5070851;28;20098;-73
2022/06/19 08:36:56;;;;;;;12.32;1.77;;;;;;;;;;5071713;28;20557;-75
2022/06/19 08:39:22;;;;;;;10.50;2.17;;;;;;;;;;5072055;28;20451;-73
2022/06/19 08:42:07;;;;;;;8.85;2.08;;;;;;;;;;5071812;28;20111;-73
2022/06/19 08:44:36;;;;;;;12.43;1.88;;;;;;;;;;5104348;28;20036;-73
2022/06/19 08:47:14;;;;;;;6.60;1.70;;;;;;;;;;5070968;28;20052;-76
2022/06/19 08:49:59;;;;;;;8.73;1.85;;;;;;;;;;5070347;28;20079;-74
2022/06/19 08:52:44;;;;;;;12.25;1.80;;;;;;;;;;5070566;28;20102;-74
2022/06/19 08:55:22;;;;;;;7.50;1.75;;;;;;;;;;5070526;28;20090;-74
2022/06/19 08:58:06;;;;;;;7.40;1.80;;;;;;;;;;5071502;28;20119;-74
2022/06/19 09:00:32;;;;;;;14.32;2.50;;;;;;;;;;5044071;28;20506;-75
2022/06/19 09:03:04;;;;;;;7.18;1.40;;;;;;;;;;5072926;28;20087;-75
2022/06/19 09:05:38;;;;;;;13.25;2.28;;;;;;;;;;5075334;28;20043;-75
2022/06/19 09:08:04;;;;;;;11.00;1.88;;;;;;;;;;5074630;28;20671;-75
2022/06/19 09:10:47;;;;;;;11.10;2.05;;;;;;;;;;5074775;28;20142;-73
2022/06/19 09:13:18;;;;;;;10.50;1.70;;;;;;;;;;5075569;28;20121;-75
2022/06/19 09:15:51;;;;;;;11.35;2.65;;;;;;;;;;5074863;28;20124;-75
2022/06/19 09:18:29;;;;;;;11.05;1.92;;;;;;;;;;5075311;28;20044;-75
2022/06/19 09:21:04;;;;;;;8.38;1.40;;;;;;;;;;5074700;28;20059;-75
2022/06/19 09:23:30;;;;;;;12.40;1.60;;;;;;;;;;5075098;28;20052;-75
2022/06/19 09:26:07;;;;;;;6.90;1.48;;;;;;;;;;5075462;28;20037;-75
2022/06/19 09:28:43;;;;;;;9.52;1.70;;;;;;;;;;5074257;28;20102;-75
2022/06/19 09:31:15;;;;;;;6.95;1.50;;;;;;;;;;5070450;28;20048;-75
2022/06/19 09:33:44;;;;;;;8.00;1.35;;;;;;;;;;5058061;28;20048;-75
2022/06/19 09:36:19;;;;;;;6.15;1.30;;;;;;;;;;5073066;28;20175;-75
2022/06/19 09:38:45;;;;;;;7.00;1.40;;;;;;;;;;5075644;28;20059;-74
2022/06/19 09:41:23;;;;;;;5.72;1.40;;;;;;;;;;5073104;28;20051;-75
2022/06/19 09:44:00;;;;;;;8.85;1.77;;;;;;;;;;5056962;28;20044;-75
2022/06/19 09:46:34;;;;;;;6.90;1.42;;;;;;;;;;5073126;28;20524;-75
2022/06/19 09:49:08;;;;;;;5.65;1.08;;;;;;;;;;5073691;28;20508;-75
2022/06/19 09:51:41;;;;;;;5.07;1.33;;;;;;;;;;5073841;28;20056;-75
2022/06/19 09:54:13;;;;;;;6.03;1.20;;;;;;;;;;5073223;28;20162;-75
2022/06/19 09:56:54;;;;;;;8.85;1.33;;;;;;;;;;5073431;28;20048;-75
2022/06/19 09:59:27;;;;;;;3.80;0.90;;;;;;;;;;5074953;28;20164;-75
2022/06/19 10:01:58;;;;;;;9.25;2.00;;;;;;;;;;5073093;28;20036;-75
2022/06/19 10:04:27;;;;;;;6.10;1.00;;;;;;;;;;5073388;28;20115;-75
2022/06/19 10:06:58;;;;;;;6.75;1.20;;;;;;;;;;5056052;28;20055;-75
2022/06/19 10:09:40;;;;;;;4.68;1.10;;;;;;;;;;5056967;28;20033;-75
2022/06/19 10:12:09;;;;;;;4.10;1.00;;;;;;;;;;5072756;28;20079;-75
2022/06/19 10:14:41;;;;;;;6.88;1.00;;;;;;;;;;5073157;28;20119;-75
2022/06/19 10:17:26;;;;;;;7.30;1.20;;;;;;;;;;5055859;28;20049;-75
2022/06/19 10:19:54;;;;;;;5.47;1.27;;;;;;;;;;5049722;28;20040;-75
2022/06/19 10:22:25;;;;;;;8.82;1.38;;;;;;;;;;5073010;28;20085;-75
2022/06/19 10:24:51;;;;;;;4.95;1.17;;;;;;;;;;5073343;28;20051;-75
2022/06/19 10:27:23;;;;;;;7.65;1.35;;;;;;;;;;5073875;28;20048;-75
2022/06/19 10:30:03;;;;;;;5.93;1.42;;;;;;;;;;5069593;28;20115;-75
2022/06/19 10:32:49;;;;;;;5.68;1.60;;;;;;;;;;5073347;28;20036;-75
2022/06/19 10:35:34;;;;;;;10.55;1.30;;;;;;;;;;5072739;28;20504;-75
2022/06/19 10:38:18;;;;;;;5.47;1.25;;;;;;;;;;5055225;28;20055;-75
2022/06/19 10:40:50;;;;;;;5.70;1.20;;;;;;;;;;5073059;28;20516;-75
2022/06/19 10:43:22;;;;;;;5.25;1.80;;;;;;;;;;5071900;28;20067;-75
2022/06/19 10:45:53;;;;;;;6.07;1.80;;;;;;;;;;5072512;28;20139;-75
2022/06/19 10:48:25;;;;;;;4.43;1.20;;;;;;;;;;5071586;28;20055;-75
2022/06/19 10:50:51;;;;;;;6.72;1.65;;;;;;;;;;5072564;28;20040;-75
2022/06/19 10:53:20;;;;;;;3.83;1.10;;;;;;;;;;5073496;28;20089;-75
2022/06/19 10:55:52;;;;;;;7.13;1.25;;;;;;;;;;5077396;28;20052;-74
2022/06/19 10:58:20;;;;;;;6.63;1.10;;;;;;;;;;5071995;28;20083;-74
2022/06/19 11:00:51;;;;;;;3.65;0.85;;;;;;;;;;5055597;28;20040;-74
2022/06/19 11:06:14;;;;;;;4.28;0.80;;;;;;;;;;5071951;28;20041;-75
2022/06/19 11:08:42;;;;;;;3.33;1.00;;;;;;;;;;5071944;28;20044;-74
2022/06/19 11:11:10;;;;;;;7.95;1.13;;;;;;;;;;5071584;28;20139;-75
2022/06/19 11:13:55;;;;;;;4.45;0.90;;;;;;;;;;5071848;28;20455;-75
2022/06/19 11:16:21;;;;;;;4.30;1.05;;;;;;;;;;5045637;28;20048;-75
2022/06/19 11:18:48;;;;;;;3.22;0.95;;;;;;;;;;5058865;28;20040;-75
2022/06/19 11:21:17;;;;;;;3.15;0.98;;;;;;;;;;5055105;28;20051;-75
2022/06/19 11:23:50;;;;;;;3.90;1.33;;;;;;;;;;5073582;28;20041;-75
2022/06/19 11:26:16;;;;;;;3.55;0.75;;;;;;;;;;5070634;28;20032;-75
2022/06/19 11:28:51;;;;;;;3.92;0.90;;;;;;;;;;5071633;28;20058;-75
2022/06/19 11:31:34;;;;;;;3.15;0.90;;;;;;;;;;5100758;28;20119;-75
2022/06/19 11:34:43;;;;;;;2.50;0.80;;;;;;;;;;5054437;28;20072;-75
2022/06/19 11:37:14;;;;;;;3.35;1.02;;;;;;;;;;5050856;28;20435;-75
2022/06/19 11:39:42;;;;;;;2.35;0.80;;;;;;;;;;5071594;28;20113;-75
2022/06/19 11:42:29;;;;;;;3.13;0.88;;;;;;;;;;5054821;28;20445;-75
2022/06/19 11:44:57;;;;;;;4.50;0.95;;;;;;;;;;5071273;28;20039;-75
2022/06/19 11:47:41;;;;;;;3.00;0.77;;;;;;;;;;5070700;28;20061;-76
2022/06/19 11:50:15;;;;;;;2.17;0.60;;;;;;;;;;5071074;28;20044;-75
2022/06/19 11:52:45;;;;;;;2.72;0.80;;;;;;;;;;5071731;28;20480;-75
2022/06/19 11:55:16;;;;;;;5.13;0.82;;;;;;;;;;5070989;28;20033;-75
2022/06/19 11:57:42;;;;;;;2.97;0.82;;;;;;;;;;5072252;28;20086;-75
2022/06/19 12:00:22;;;;;;;4.70;1.10;;;;;;;;;;5070634;28;20071;-75
2022/06/19 12:02:53;;;;;;;5.10;1.02;;;;;;;;;;5072654;28;20052;-75
2022/06/19 12:05:27;;;;;;;6.45;1.20;;;;;;;;;;5071844;28;20081;-75
2022/06/19 12:07:55;;;;;;;4.45;1.05;;;;;;;;;;5071127;28;20032;-75
2022/06/19 12:10:23;;;;;;;5.63;1.23;;;;;;;;;;5070493;28;20040;-75
2022/06/19 12:12:53;;;;;;;4.20;1.02;;;;;;;;;;5072427;28;20036;-75
2022/06/19 12:15:24;;;;;;;4.25;0.90;;;;;;;;;;5071853;28;20142;-75
2022/06/19 12:18:11;;;;;;;6.53;1.13;;;;;;;;;;5071793;28;20480;-75
2022/06/19 12:20:38;;;;;;;4.38;0.80;;;;;;;;;;5048028;28;20052;-75
2022/06/19 12:23:04;;;;;;;5.78;1.10;;;;;;;;;;5070992;28;20047;-75
2022/06/19 12:25:34;;;;;;;4.00;1.20;;;;;;;;;;5071721;28;20484;-75
2022/06/19 12:28:00;;;;;;;6.70;1.48;;;;;;;;;;5071454;28;20488;-75
2022/06/19 12:30:33;;;;;;;4.25;1.00;;;;;;;;;;5101592;28;20044;-75
2022/06/19 12:33:03;;;;;;;3.67;0.80;;;;;;;;;;5071107;28;20040;-74
2022/06/19 12:35:34;;;;;;;3.00;1.00;;;;;;;;;;5071843;28;20032;-75
2022/06/19 12:38:00;;;;;;;4.05;1.02;;;;;;;;;;5073453;28;20055;-76
2022/06/19 12:40:32;;;;;;;5.53;1.00;;;;;;;;;;5059152;28;20048;-75
2022/06/19 12:43:06;;;;;;;4.30;0.95;;;;;;;;;;5109648;28;20488;-75
2022/06/19 12:45:36;;;;;;;2.92;0.82;;;;;;;;;;5075278;28;20049;-75
2022/06/19 12:48:05;;;;;;;5.80;1.10;;;;;;;;;;5074809;28;20136;-75
2022/06/19 12:50:35;;;;;;;5.57;1.10;;;;;;;;;;5057423;28;20051;-75
2022/06/19 12:53:20;;;;;;;5.38;1.00;;;;;;;;;;5074663;28;20076;-75
2022/06/19 12:56:00;;;;;;;4.28;1.00;;;;;;;;;;5075815;28;20094;-75
2022/06/19 12:58:39;;;;;;;4.93;1.00;;;;;;;;;;5075416;28;20068;-75
2022/06/19 13:01:10;;;;;;;5.75;1.27;;;;;;;;;;5075718;28;20115;-75
2022/06/19 13:03:49;;;;;;;4.28;1.20;;;;;;;;;;5075134;28;20511;-74
2022/06/19 13:06:23;;;;;;;4.45;1.20;;;;;;;;;;5074883;28;20044;-75
2022/06/19 13:09:28;;;;;;;6.75;1.05;;;;;;;;;;5076763;28;20067;-74
2022/06/19 13:12:04;;;;;;;4.30;1.25;;;;;;;;;;5037663;28;20072;-75
2022/06/19 13:14:49;;;;;;;5.25;1.00;;;;;;;;;;5021157;28;20044;-74
2022/06/19 13:17:21;;;;;;;5.15;1.00;;;;;;;;;;5061452;28;20056;-74
2022/06/19 13:19:57;;;;;;;7.75;1.20;;;;;;;;;;5058640;28;20036;-74
2022/06/19 13:22:38;;;;;;;4.80;1.10;;;;;;;;;;5057060;28;20098;-74
2022/06/19 13:25:04;;;;;;;4.13;0.90;;;;;;;;;;5074025;28;20516;-74
2022/06/19 13:27:30;;;;;;;6.53;1.70;;;;;;;;;;5073693;28;20148;-74
2022/06/19 13:29:59;;;;;;;5.32;0.95;;;;;;;;;;5071045;28;20477;-74
2022/06/19 13:32:32;;;;;;;7.20;1.63;;;;;;;;;;5057150;28;20048;-74
2022/06/19 13:35:01;;;;;;;5.57;1.25;;;;;;;;;;5046174;28;20036;-75
2022/06/19 13:37:42;;;;;;;3.47;0.90;;;;;;;;;;5073392;28;20044;-74
2022/06/19 13:40:15;;;;;;;6.60;1.23;;;;;;;;;;5047137;28;20043;-74
2022/06/19 13:42:41;;;;;;;8.32;1.60;;;;;;;;;;5073799;28;20045;-74
2022/06/19 13:45:23;;;;;;;6.55;1.17;;;;;;;;;;5073575;28;20048;-74
2022/06/19 13:47:49;;;;;;;6.10;1.13;;;;;;;;;;5073531;28;20053;-74
2022/06/19 13:50:18;;;;;;;6.50;1.20;;;;;;;;;;5073319;28;20059;-75
2022/06/19 13:52:44;;;;;;;6.15;1.10;;;;;;;;;;5073641;28;20168;-74
2022/06/19 13:55:20;;;;;;;7.25;1.17;;;;;;;;;;5073619;28;20471;-74
2022/06/19 13:57:52;;;;;;;5.00;1.40;;;;;;;;;;5075178;28;20102;-74
2022/06/19 14:00:34;;;;;;;5.38;1.20;;;;;;;;;;5074281;28;20076;-74
2022/06/19 14:03:13;;;;;;;4.32;1.08;;;;;;;;;;5075201;28;20040;-75
2022/06/19 14:05:44;;;;;;;6.43;1.20;;;;;;;;;;5046742;28;20041;-76
2022/06/19 14:08:22;;;;;;;6.18;1.33;;;;;;;;;;5073176;28;20119;-74
2022/06/19 14:10:54;;;;;;;5.30;1.10;;;;;;;;;;5047619;28;20037;-76
2022/06/19 14:13:21;;;;;;;6.90;1.35;;;;;;;;;;5056319;28;20059;-75
2022/06/19 14:16:05;;;;;;;7.15;1.95;;;;;;;;;;5057117;28;20044;-73
2022/06/19 14:18:37;;;;;;;6.40;1.20;;;;;;;;;;5072860;28;20045;-75
2022/06/19 14:21:06;;;;;;;6.82;1.20;;;;;;;;;;5073092;28;20040;-74
2022/06/19 14:23:39;;;;;;;6.10;1.13;;;;;;;;;;5072555;28;20095;-74
2022/06/19 14:26:14;;;;;;;4.85;1.10;;;;;;;;;;5072868;28;20123;-74
2022/06/19 14:28:58;;;;;;;6.60;1.10;;;;;;;;;;5074268;28;20514;-75
2022/06/19 14:31:26;;;;;;;7.53;1.45;;;;;;;;;;5108624;28;20459;-75
2022/06/19 14:33:53;;;;;;;6.65;1.80;;;;;;;;;;5074338;28;20401;-75
2022/06/19 14:36:19;;;;;;;4.85;1.00;;;;;;;;;;5072188;28;20040;-75
2022/06/19 14:38:50;;;;;;;5.38;1.27;;;;;;;;;;5072813;28;20048;-75
2022/06/19 14:41:19;;;;;;;6.30;1.17;;;;;;;;;;5072551;28;20044;-75
2022/06/19 14:43:52;;;;;;;6.75;1.40;;;;;;;;;;5072423;28;20040;-75
2022/06/19 14:46:37;;;;;;;4.93;1.38;;;;;;;;;;5072002;28;20057;-75
2022/06/19 14:49:16;;;;;;;7.60;1.40;;;;;;;;;;5072543;28;20036;-75
2022/06/19 14:51:42;;;;;;;5.85;1.42;;;;;;;;;;5071638;28;20036;-75
2022/06/19 14:54:08;;;;;;;6.80;1.35;;;;;;;;;;5072114;28;20034;-75
2022/06/19 14:56:49;;;;;;;7.03;1.38;;;;;;;;;;5055231;28;20497;-75
2022/06/19 14:59:21;;;;;;;6.03;1.30;;;;;;;;;;5071712;28;20036;-75